sensor_id;sensor_type;location;lat;lon;timestamp;temperature;humidity
17938;DHT22;16051;53.024;8.630;2023-02-25T00:01:18;5.40;99.90
17938;DHT22;16051;53.024;8.630;2023-02-25T00:05:29;5.40;99.90
17938;DHT22;16051;53.024;8.630;2023-02-25T00:09:33;5.40;99.90
17938;DHT22;16051;53.024;8.630;2023-02-25T00:13:35;5.50;99.90
17938;DHT22;16051;53.024;8.630;2023-02-25T00:17:42;5.40;99.90
17938;DHT22;16051;53.024;8.630;2023-02-25T00:21:44;5.40;99.90
17938;DHT22;16051;53.024;8.630;2023-02-25T00:25:46;5.40;99.90
17938;DHT22;16051;53.024;8.630;2023-02-25T00:29:51;5.30;99.90
17938;DHT22;16051;53.024;8.630;2023-02-25T00:33:54;5.30;99.90
17938;DHT22;16051;53.024;8.630;2023-02-25T00:38:08;5.20;99.90
17938;DHT22;16051;53.024;8.630;2023-02-25T00:42:11;5.20;99.90
17938;DHT22;16051;53.024;8.630;2023-02-25T00:46:15;5.20;99.90
17938;DHT22;16051;53.024;8.630;2023-02-25T00:50:19;5.20;99.90
17938;DHT22;16051;53.024;8.630;2023-02-25T00:54:21;5.20;99.90
17938;DHT22;16051;53.024;8.630;2023-02-25T00:58:24;5.30;99.90
17938;DHT22;16051;53.024;8.630;2023-02-25T01:02:26;5.20;99.90
17938;DHT22;16051;53.024;8.630;2023-02-25T01:06:31;5.30;99.90
17938;DHT22;16051;53.024;8.630;2023-02-25T01:10:44;5.30;99.90
17938;DHT22;16051;53.024;8.630;2023-02-25T01:14:46;5.20;99.90
17938;DHT22;16051;53.024;8.630;2023-02-25T01:18:51;5.30;99.90
17938;DHT22;16051;53.024;8.630;2023-02-25T01:22:55;5.30;99.90
17938;DHT22;16051;53.024;8.630;2023-02-25T01:26:59;5.20;99.90
17938;DHT22;16051;53.024;8.630;2023-02-25T01:31:02;5.20;99.90
17938;DHT22;16051;53.024;8.630;2023-02-25T01:35:08;5.20;99.90
17938;DHT22;16051;53.024;8.630;2023-02-25T01:39:12;5.20;99.90
17938;DHT22;16051;53.024;8.630;2023-02-25T01:43:16;5.20;99.90
17938;DHT22;16051;53.024;8.630;2023-02-25T01:47:19;5.20;99.90
17938;DHT22;16051;53.024;8.630;2023-02-25T01:51:22;5.20;99.90
17938;DHT22;16051;53.024;8.630;2023-02-25T01:55:32;5.20;99.90
17938;DHT22;16051;53.024;8.630;2023-02-25T01:59:38;5.30;99.90
17938;DHT22;16051;53.024;8.630;2023-02-25T02:03:42;5.20;99.90
17938;DHT22;16051;53.024;8.630;2023-02-25T02:07:45;5.20;99.90
17938;DHT22;16051;53.024;8.630;2023-02-25T02:11:49;5.30;99.90
17938;DHT22;16051;53.024;8.630;2023-02-25T02:16:01;5.20;99.90
17938;DHT22;16051;53.024;8.630;2023-02-25T02:20:14;5.20;99.90
17938;DHT22;16051;53.024;8.630;2023-02-25T02:29:26;5.20;99.90
17938;DHT22;16051;53.024;8.630;2023-02-25T02:33:57;5.20;99.90
17938;DHT22;16051;53.024;8.630;2023-02-25T02:42:57;5.20;99.90
17938;DHT22;16051;53.024;8.630;2023-02-25T02:47:10;5.20;99.90
17938;DHT22;16051;53.024;8.630;2023-02-25T02:51:21;5.20;99.90
17938;DHT22;16051;53.024;8.630;2023-02-25T02:56:03;5.20;99.90
17938;DHT22;16051;53.024;8.630;2023-02-25T03:00:11;5.20;99.90
17938;DHT22;16051;53.024;8.630;2023-02-25T03:04:20;5.20;99.90
17938;DHT22;16051;53.024;8.630;2023-02-25T03:08:28;5.10;99.90
17938;DHT22;16051;53.024;8.630;2023-02-25T03:12:33;5.10;99.90
17938;DHT22;16051;53.024;8.630;2023-02-25T03:16:40;5.10;99.90
17938;DHT22;16051;53.024;8.630;2023-02-25T03:20:47;5.10;99.90
17938;DHT22;16051;53.024;8.630;2023-02-25T03:24:54;5.10;99.90
17938;DHT22;16051;53.024;8.630;2023-02-25T03:29:00;5.10;99.90
17938;DHT22;16051;53.024;8.630;2023-02-25T03:33:05;5.10;99.90
17938;DHT22;16051;53.024;8.630;2023-02-25T03:37:18;5.10;99.90
17938;DHT22;16051;53.024;8.630;2023-02-25T03:45:58;5.10;99.90
17938;DHT22;16051;53.024;8.630;2023-02-25T03:50:05;5.20;99.90
17938;DHT22;16051;53.024;8.630;2023-02-25T03:54:10;5.20;99.90
17938;DHT22;16051;53.024;8.630;2023-02-25T03:58:13;5.20;99.90
17938;DHT22;16051;53.024;8.630;2023-02-25T04:02:17;5.20;99.90
17938;DHT22;16051;53.024;8.630;2023-02-25T04:06:21;5.20;99.90
17938;DHT22;16051;53.024;8.630;2023-02-25T04:10:24;5.10;99.90
17938;DHT22;16051;53.024;8.630;2023-02-25T04:14:28;5.10;99.90
17938;DHT22;16051;53.024;8.630;2023-02-25T04:18:30;5.10;99.90
17938;DHT22;16051;53.024;8.630;2023-02-25T04:22:33;5.10;99.90
17938;DHT22;16051;53.024;8.630;2023-02-25T04:26:35;5.00;99.90
17938;DHT22;16051;53.024;8.630;2023-02-25T04:30:57;5.00;99.90
17938;DHT22;16051;53.024;8.630;2023-02-25T04:34:59;4.90;99.90
17938;DHT22;16051;53.024;8.630;2023-02-25T04:39:04;4.90;99.90
17938;DHT22;16051;53.024;8.630;2023-02-25T04:43:06;4.80;99.90
17938;DHT22;16051;53.024;8.630;2023-02-25T04:47:10;4.80;99.90
17938;DHT22;16051;53.024;8.630;2023-02-25T04:51:16;4.80;99.90
17938;DHT22;16051;53.024;8.630;2023-02-25T04:55:19;4.80;99.90
17938;DHT22;16051;53.024;8.630;2023-02-25T04:59:21;4.70;99.90
17938;DHT22;16051;53.024;8.630;2023-02-25T05:03:27;4.70;99.90
17938;DHT22;16051;53.024;8.630;2023-02-25T05:07:30;4.60;99.90
17938;DHT22;16051;53.024;8.630;2023-02-25T05:11:32;4.60;99.90
17938;DHT22;16051;53.024;8.630;2023-02-25T05:15:34;4.50;99.90
17938;DHT22;16051;53.024;8.630;2023-02-25T05:19:37;4.50;99.90
17938;DHT22;16051;53.024;8.630;2023-02-25T05:23:40;4.50;99.90
17938;DHT22;16051;53.024;8.630;2023-02-25T05:27:42;4.50;99.90
17938;DHT22;16051;53.024;8.630;2023-02-25T05:31:44;4.50;99.90
17938;DHT22;16051;53.024;8.630;2023-02-25T05:36:04;4.50;99.90
17938;DHT22;16051;53.024;8.630;2023-02-25T05:40:08;4.50;99.90
17938;DHT22;16051;53.024;8.630;2023-02-25T05:44:13;4.40;99.90
17938;DHT22;16051;53.024;8.630;2023-02-25T05:48:15;4.40;99.90
17938;DHT22;16051;53.024;8.630;2023-02-25T05:52:19;4.30;99.90
17938;DHT22;16051;53.024;8.630;2023-02-25T05:56:23;4.30;99.90
17938;DHT22;16051;53.024;8.630;2023-02-25T06:00:57;4.20;99.90
17938;DHT22;16051;53.024;8.630;2023-02-25T06:05:00;4.20;99.90
17938;DHT22;16051;53.024;8.630;2023-02-25T06:09:04;4.10;99.90
17938;DHT22;16051;53.024;8.630;2023-02-25T06:13:07;4.10;99.90
17938;DHT22;16051;53.024;8.630;2023-02-25T06:17:09;4.00;99.90
17938;DHT22;16051;53.024;8.630;2023-02-25T06:21:30;4.00;99.90
17938;DHT22;16051;53.024;8.630;2023-02-25T06:25:35;3.90;99.90
17938;DHT22;16051;53.024;8.630;2023-02-25T06:29:37;3.90;99.90
17938;DHT22;16051;53.024;8.630;2023-02-25T06:33:41;3.90;99.90
17938;DHT22;16051;53.024;8.630;2023-02-25T06:37:44;3.90;99.90
17938;DHT22;16051;53.024;8.630;2023-02-25T06:41:47;4.00;99.90
17938;DHT22;16051;53.024;8.630;2023-02-25T06:45:50;3.90;99.90
17938;DHT22;16051;53.024;8.630;2023-02-25T06:49:52;3.90;99.90
17938;DHT22;16051;53.024;8.630;2023-02-25T06:53:54;3.90;99.90
17938;DHT22;16051;53.024;8.630;2023-02-25T07:02:38;3.90;99.90
17938;DHT22;16051;53.024;8.630;2023-02-25T07:06:40;4.00;99.90
17938;DHT22;16051;53.024;8.630;2023-02-25T07:10:42;4.00;99.90
17938;DHT22;16051;53.024;8.630;2023-02-25T07:14:45;4.10;99.90
17938;DHT22;16051;53.024;8.630;2023-02-25T07:18:48;4.10;99.90
17938;DHT22;16051;53.024;8.630;2023-02-25T07:22:50;4.20;99.90
17938;DHT22;16051;53.024;8.630;2023-02-25T07:26:52;4.20;99.90
17938;DHT22;16051;53.024;8.630;2023-02-25T07:30:59;4.20;99.90
17938;DHT22;16051;53.024;8.630;2023-02-25T07:35:01;4.30;99.90
17938;DHT22;16051;53.024;8.630;2023-02-25T07:39:05;4.30;99.90
17938;DHT22;16051;53.024;8.630;2023-02-25T07:43:08;4.20;99.90
17938;DHT22;16051;53.024;8.630;2023-02-25T07:47:12;4.20;99.90
17938;DHT22;16051;53.024;8.630;2023-02-25T07:51:15;4.10;99.90
17938;DHT22;16051;53.024;8.630;2023-02-25T07:55:19;4.30;99.90
17938;DHT22;16051;53.024;8.630;2023-02-25T07:59:21;4.40;99.90
17938;DHT22;16051;53.024;8.630;2023-02-25T08:03:28;4.50;99.90
17938;DHT22;16051;53.024;8.630;2023-02-25T08:07:30;4.60;99.90
17938;DHT22;16051;53.024;8.630;2023-02-25T08:11:32;4.70;99.90
17938;DHT22;16051;53.024;8.630;2023-02-25T08:15:54;4.70;99.90
17938;DHT22;16051;53.024;8.630;2023-02-25T08:19:58;4.90;99.90
17938;DHT22;16051;53.024;8.630;2023-02-25T08:24:00;4.90;99.90
17938;DHT22;16051;53.024;8.630;2023-02-25T08:28:02;5.10;99.90
17938;DHT22;16051;53.024;8.630;2023-02-25T08:32:05;5.20;99.90
17938;DHT22;16051;53.024;8.630;2023-02-25T08:36:11;5.20;99.90
17938;DHT22;16051;53.024;8.630;2023-02-25T08:40:17;5.20;99.90
17938;DHT22;16051;53.024;8.630;2023-02-25T08:44:21;5.30;99.90
17938;DHT22;16051;53.024;8.630;2023-02-25T08:48:23;5.40;99.90
17938;DHT22;16051;53.024;8.630;2023-02-25T08:52:26;6.10;99.90
17938;DHT22;16051;53.024;8.630;2023-02-25T08:56:33;6.50;99.90
17938;DHT22;16051;53.024;8.630;2023-02-25T09:00:36;5.90;99.90
17938;DHT22;16051;53.024;8.630;2023-02-25T09:04:40;5.60;99.90
17938;DHT22;16051;53.024;8.630;2023-02-25T09:08:43;5.60;99.90
17938;DHT22;16051;53.024;8.630;2023-02-25T09:12:46;5.60;99.90
17938;DHT22;16051;53.024;8.630;2023-02-25T09:16:49;5.70;99.90
17938;DHT22;16051;53.024;8.630;2023-02-25T09:21:25;5.80;99.90
17938;DHT22;16051;53.024;8.630;2023-02-25T09:25:28;5.80;99.90
17938;DHT22;16051;53.024;8.630;2023-02-25T09:29:30;5.70;99.90
17938;DHT22;16051;53.024;8.630;2023-02-25T09:33:42;6.10;99.90
17938;DHT22;16051;53.024;8.630;2023-02-25T09:37:45;6.60;99.90
17938;DHT22;16051;53.024;8.630;2023-02-25T09:41:51;7.30;99.90
17938;DHT22;16051;53.024;8.630;2023-02-25T09:46:07;7.40;99.90
17938;DHT22;16051;53.024;8.630;2023-02-25T09:50:17;7.40;99.90
17938;DHT22;16051;53.024;8.630;2023-02-25T09:54:26;7.20;99.90
17938;DHT22;16051;53.024;8.630;2023-02-25T09:58:37;7.30;99.90
17938;DHT22;16051;53.024;8.630;2023-02-25T10:02:46;7.20;99.90
17938;DHT22;16051;53.024;8.630;2023-02-25T10:06:56;7.40;99.90
17938;DHT22;16051;53.024;8.630;2023-02-25T10:11:28;8.00;99.90
17938;DHT22;16051;53.024;8.630;2023-02-25T10:15:52;8.70;99.90
17938;DHT22;16051;53.024;8.630;2023-02-25T10:20:32;9.20;99.90
17938;DHT22;16051;53.024;8.630;2023-02-25T10:24:50;9.60;99.90
17938;DHT22;16051;53.024;8.630;2023-02-25T10:29:13;10.10;99.90
17938;DHT22;16051;53.024;8.630;2023-02-25T10:33:36;10.70;99.90
17938;DHT22;16051;53.024;8.630;2023-02-25T10:37:45;11.20;99.90
17938;DHT22;16051;53.024;8.630;2023-02-25T10:41:47;11.50;99.80
17938;DHT22;16051;53.024;8.630;2023-02-25T10:45:55;11.80;98.60
17938;DHT22;16051;53.024;8.630;2023-02-25T10:50:23;11.80;97.30
17938;DHT22;16051;53.024;8.630;2023-02-25T10:54:27;11.40;96.10
17938;DHT22;16051;53.024;8.630;2023-02-25T10:58:34;11.20;95.80
17938;DHT22;16051;53.024;8.630;2023-02-25T11:02:40;11.00;95.90
17938;DHT22;16051;53.024;8.630;2023-02-25T11:06:45;10.90;95.00
17938;DHT22;16051;53.024;8.630;2023-02-25T11:10:59;10.60;94.60
17938;DHT22;16051;53.024;8.630;2023-02-25T11:15:17;10.90;93.70
17938;DHT22;16051;53.024;8.630;2023-02-25T11:19:29;10.20;92.80
17938;DHT22;16051;53.024;8.630;2023-02-25T11:23:43;10.30;92.40
17938;DHT22;16051;53.024;8.630;2023-02-25T11:27:53;10.70;91.90
17938;DHT22;16051;53.024;8.630;2023-02-25T11:32:01;10.40;91.40
17938;DHT22;16051;53.024;8.630;2023-02-25T11:36:10;9.90;91.70
17938;DHT22;16051;53.024;8.630;2023-02-25T11:40:22;10.60;92.60
17938;DHT22;16051;53.024;8.630;2023-02-25T11:44:41;11.10;92.20
17938;DHT22;16051;53.024;8.630;2023-02-25T11:48:48;11.00;91.70
17938;DHT22;16051;53.024;8.630;2023-02-25T11:52:58;10.90;92.10
17938;DHT22;16051;53.024;8.630;2023-02-25T11:57:11;11.50;91.90
17938;DHT22;16051;53.024;8.630;2023-02-25T12:01:20;11.60;91.90
17938;DHT22;16051;53.024;8.630;2023-02-25T12:05:49;11.30;90.80
17938;DHT22;16051;53.024;8.630;2023-02-25T12:10:18;11.30;88.40
17938;DHT22;16051;53.024;8.630;2023-02-25T12:24:48;13.20;89.00
17938;DHT22;16051;53.024;8.630;2023-02-25T12:34:28;13.80;86.40
17938;DHT22;16051;53.024;8.630;2023-02-25T12:39:06;13.90;85.00
17938;DHT22;16051;53.024;8.630;2023-02-25T12:43:31;13.80;84.40
17938;DHT22;16051;53.024;8.630;2023-02-25T12:47:56;14.50;83.20
17938;DHT22;16051;53.024;8.630;2023-02-25T12:52:23;14.50;78.00
17938;DHT22;16051;53.024;8.630;2023-02-25T12:56:54;14.80;78.30
17938;DHT22;16051;53.024;8.630;2023-02-25T13:01:49;14.90;75.80
17938;DHT22;16051;53.024;8.630;2023-02-25T13:11:13;16.40;73.90
17938;DHT22;16051;53.024;8.630;2023-02-25T13:15:30;16.90;71.40
17938;DHT22;16051;53.024;8.630;2023-02-25T13:20:01;17.70;67.80
17938;DHT22;16051;53.024;8.630;2023-02-25T13:24:36;20.80;61.70
17938;DHT22;16051;53.024;8.630;2023-02-25T13:29:05;18.60;56.80
17938;DHT22;16051;53.024;8.630;2023-02-25T13:33:52;21.20;55.20
17938;DHT22;16051;53.024;8.630;2023-02-25T13:38:23;20.60;49.80
17938;DHT22;16051;53.024;8.630;2023-02-25T13:43:00;23.00;49.60
17938;DHT22;16051;53.024;8.630;2023-02-25T13:47:51;21.30;48.20
17938;DHT22;16051;53.024;8.630;2023-02-25T13:52:13;21.00;48.80
17938;DHT22;16051;53.024;8.630;2023-02-25T13:56:51;23.80;45.10
17938;DHT22;16051;53.024;8.630;2023-02-25T14:01:20;24.50;41.80
17938;DHT22;16051;53.024;8.630;2023-02-25T14:05:56;20.00;46.00
17938;DHT22;16051;53.024;8.630;2023-02-25T14:10:24;21.90;43.00
17938;DHT22;16051;53.024;8.630;2023-02-25T14:14:51;24.20;41.40
17938;DHT22;16051;53.024;8.630;2023-02-25T14:19:29;24.90;40.00
17938;DHT22;16051;53.024;8.630;2023-02-25T14:23:44;26.20;38.40
17938;DHT22;16051;53.024;8.630;2023-02-25T14:27:58;23.70;36.10
17938;DHT22;16051;53.024;8.630;2023-02-25T14:37:14;26.10;35.80
17938;DHT22;16051;53.024;8.630;2023-02-25T14:41:32;21.80;39.00
17938;DHT22;16051;53.024;8.630;2023-02-25T14:45:44;19.50;41.60
17938;DHT22;16051;53.024;8.630;2023-02-25T14:49:58;19.30;42.80
17938;DHT22;16051;53.024;8.630;2023-02-25T14:54:43;19.00;41.80
17938;DHT22;16051;53.024;8.630;2023-02-25T15:04:29;20.80;39.70
17938;DHT22;16051;53.024;8.630;2023-02-25T15:09:00;19.80;39.90
17938;DHT22;16051;53.024;8.630;2023-02-25T15:14:13;20.10;39.80
17938;DHT22;16051;53.024;8.630;2023-02-25T15:18:56;19.50;40.40
17938;DHT22;16051;53.024;8.630;2023-02-25T15:23:20;18.00;41.70
17938;DHT22;16051;53.024;8.630;2023-02-25T15:27:49;17.60;41.40
17938;DHT22;16051;53.024;8.630;2023-02-25T15:32:20;16.00;42.20
17938;DHT22;16051;53.024;8.630;2023-02-25T15:36:39;15.00;43.60
17938;DHT22;16051;53.024;8.630;2023-02-25T15:40:48;14.10;44.30
17938;DHT22;16051;53.024;8.630;2023-02-25T15:44:52;13.50;45.60
17938;DHT22;16051;53.024;8.630;2023-02-25T15:49:36;13.10;46.30
17938;DHT22;16051;53.024;8.630;2023-02-25T15:54:06;13.30;46.80
17938;DHT22;16051;53.024;8.630;2023-02-25T15:58:49;12.90;46.10
17938;DHT22;16051;53.024;8.630;2023-02-25T16:02:56;12.30;47.40
17938;DHT22;16051;53.024;8.630;2023-02-25T16:07:05;11.70;48.10
17938;DHT22;16051;53.024;8.630;2023-02-25T16:11:20;11.70;48.80
17938;DHT22;16051;53.024;8.630;2023-02-25T16:15:29;11.80;48.30
17938;DHT22;16051;53.024;8.630;2023-02-25T16:19:37;11.20;49.10
17938;DHT22;16051;53.024;8.630;2023-02-25T16:23:42;10.80;50.00
17938;DHT22;16051;53.024;8.630;2023-02-25T16:27:53;10.60;50.30
17938;DHT22;16051;53.024;8.630;2023-02-25T16:32:20;10.30;50.70
17938;DHT22;16051;53.024;8.630;2023-02-25T16:36:35;10.10;51.00
17938;DHT22;16051;53.024;8.630;2023-02-25T16:40:47;9.90;52.10
17938;DHT22;16051;53.024;8.630;2023-02-25T16:44:56;9.60;52.60
17938;DHT22;16051;53.024;8.630;2023-02-25T16:49:02;9.50;52.90
17938;DHT22;16051;53.024;8.630;2023-02-25T16:53:14;9.20;53.10
17938;DHT22;16051;53.024;8.630;2023-02-25T16:57:22;9.10;53.50
17938;DHT22;16051;53.024;8.630;2023-02-25T17:01:27;8.90;53.60
17938;DHT22;16051;53.024;8.630;2023-02-25T17:05:33;8.80;53.90
17938;DHT22;16051;53.024;8.630;2023-02-25T17:09:46;8.70;54.50
17938;DHT22;16051;53.024;8.630;2023-02-25T17:13:52;8.60;54.90
17938;DHT22;16051;53.024;8.630;2023-02-25T17:18:16;8.70;55.00
17938;DHT22;16051;53.024;8.630;2023-02-25T17:22:22;8.40;58.20
17938;DHT22;16051;53.024;8.630;2023-02-25T17:26:27;8.20;63.90
17938;DHT22;16051;53.024;8.630;2023-02-25T17:30:38;7.90;69.80
17938;DHT22;16051;53.024;8.630;2023-02-25T17:34:44;7.70;74.30
17938;DHT22;16051;53.024;8.630;2023-02-25T17:38:50;7.60;77.00
17938;DHT22;16051;53.024;8.630;2023-02-25T17:43:14;7.50;80.00
17938;DHT22;16051;53.024;8.630;2023-02-25T17:47:25;7.30;82.90
17938;DHT22;16051;53.024;8.630;2023-02-25T17:51:39;7.20;85.90
17938;DHT22;16051;53.024;8.630;2023-02-25T17:55:41;7.10;88.70
17938;DHT22;16051;53.024;8.630;2023-02-25T17:59:48;7.00;90.50
17938;DHT22;16051;53.024;8.630;2023-02-25T18:03:53;6.90;92.20
17938;DHT22;16051;53.024;8.630;2023-02-25T18:08:15;6.90;94.10
17938;DHT22;16051;53.024;8.630;2023-02-25T18:12:23;6.70;96.10
17938;DHT22;16051;53.024;8.630;2023-02-25T18:16:39;6.60;98.40
17938;DHT22;16051;53.024;8.630;2023-02-25T18:20:45;6.50;99.90
17938;DHT22;16051;53.024;8.630;2023-02-25T18:25:02;6.40;99.90
17938;DHT22;16051;53.024;8.630;2023-02-25T18:29:08;6.40;99.90
17938;DHT22;16051;53.024;8.630;2023-02-25T18:33:20;6.40;99.90
17938;DHT22;16051;53.024;8.630;2023-02-25T18:37:37;6.30;99.90
17938;DHT22;16051;53.024;8.630;2023-02-25T18:41:41;6.20;99.90
17938;DHT22;16051;53.024;8.630;2023-02-25T18:45:43;6.10;99.90
17938;DHT22;16051;53.024;8.630;2023-02-25T18:49:46;6.00;99.90
17938;DHT22;16051;53.024;8.630;2023-02-25T18:53:50;5.90;99.90
17938;DHT22;16051;53.024;8.630;2023-02-25T18:57:53;5.90;99.90
17938;DHT22;16051;53.024;8.630;2023-02-25T19:01:55;5.70;99.90
17938;DHT22;16051;53.024;8.630;2023-02-25T19:05:57;5.70;99.90
17938;DHT22;16051;53.024;8.630;2023-02-25T19:10:04;5.60;99.90
17938;DHT22;16051;53.024;8.630;2023-02-25T19:14:11;5.50;99.90
17938;DHT22;16051;53.024;8.630;2023-02-25T19:18:26;5.40;99.90
17938;DHT22;16051;53.024;8.630;2023-02-25T19:22:32;5.40;99.90
17938;DHT22;16051;53.024;8.630;2023-02-25T19:26:43;5.30;99.90
17938;DHT22;16051;53.024;8.630;2023-02-25T19:30:47;5.10;99.90
17938;DHT22;16051;53.024;8.630;2023-02-25T19:34:50;5.10;99.90
17938;DHT22;16051;53.024;8.630;2023-02-25T19:39:16;5.00;99.90
17938;DHT22;16051;53.024;8.630;2023-02-25T19:43:20;4.90;99.90
17938;DHT22;16051;53.024;8.630;2023-02-25T19:47:25;4.80;99.90
17938;DHT22;16051;53.024;8.630;2023-02-25T19:51:38;4.70;99.90
17938;DHT22;16051;53.024;8.630;2023-02-25T19:55:41;4.60;99.90
17938;DHT22;16051;53.024;8.630;2023-02-25T19:59:53;4.60;99.90
17938;DHT22;16051;53.024;8.630;2023-02-25T20:03:55;4.50;99.90
17938;DHT22;16051;53.024;8.630;2023-02-25T20:08:03;4.40;99.90
17938;DHT22;16051;53.024;8.630;2023-02-25T20:12:05;4.40;99.90
17938;DHT22;16051;53.024;8.630;2023-02-25T20:16:10;4.30;99.90
17938;DHT22;16051;53.024;8.630;2023-02-25T20:20:20;4.20;99.90
17938;DHT22;16051;53.024;8.630;2023-02-25T20:24:30;4.20;99.90
17938;DHT22;16051;53.024;8.630;2023-02-25T20:28:33;4.20;99.90
17938;DHT22;16051;53.024;8.630;2023-02-25T20:32:41;4.20;99.90
17938;DHT22;16051;53.024;8.630;2023-02-25T20:36:49;4.20;99.90
17938;DHT22;16051;53.024;8.630;2023-02-25T20:40:54;4.10;99.90
17938;DHT22;16051;53.024;8.630;2023-02-25T20:44:58;4.10;99.90
17938;DHT22;16051;53.024;8.630;2023-02-25T20:49:03;4.20;99.90
17938;DHT22;16051;53.024;8.630;2023-02-25T20:53:13;4.20;99.90
17938;DHT22;16051;53.024;8.630;2023-02-25T20:57:19;4.20;99.90
17938;DHT22;16051;53.024;8.630;2023-02-25T21:01:31;4.20;99.90
17938;DHT22;16051;53.024;8.630;2023-02-25T21:05:35;4.10;99.90
17938;DHT22;16051;53.024;8.630;2023-02-25T21:09:45;4.10;99.90
17938;DHT22;16051;53.024;8.630;2023-02-25T21:14:00;4.20;99.90
17938;DHT22;16051;53.024;8.630;2023-02-25T21:18:03;4.10;99.90
17938;DHT22;16051;53.024;8.630;2023-02-25T21:22:07;4.20;99.90
17938;DHT22;16051;53.024;8.630;2023-02-25T21:26:34;4.10;99.90
17938;DHT22;16051;53.024;8.630;2023-02-25T21:30:38;4.00;99.90
17938;DHT22;16051;53.024;8.630;2023-02-25T21:34:40;3.90;99.90
17938;DHT22;16051;53.024;8.630;2023-02-25T21:39:18;3.80;99.90
17938;DHT22;16051;53.024;8.630;2023-02-25T21:43:28;3.80;99.90
17938;DHT22;16051;53.024;8.630;2023-02-25T21:47:30;3.60;99.90
17938;DHT22;16051;53.024;8.630;2023-02-25T21:51:44;3.60;99.90
17938;DHT22;16051;53.024;8.630;2023-02-25T21:55:47;3.60;99.90
17938;DHT22;16051;53.024;8.630;2023-02-25T22:00:02;3.50;99.90
17938;DHT22;16051;53.024;8.630;2023-02-25T22:04:07;3.40;99.90
17938;DHT22;16051;53.024;8.630;2023-02-25T22:08:10;3.30;99.90
17938;DHT22;16051;53.024;8.630;2023-02-25T22:12:15;3.30;99.90
17938;DHT22;16051;53.024;8.630;2023-02-25T22:16:17;3.30;99.90
17938;DHT22;16051;53.024;8.630;2023-02-25T22:20:22;3.20;99.90
17938;DHT22;16051;53.024;8.630;2023-02-25T22:24:24;3.10;99.90
17938;DHT22;16051;53.024;8.630;2023-02-25T22:28:28;3.00;99.90
17938;DHT22;16051;53.024;8.630;2023-02-25T22:32:37;3.10;99.90
17938;DHT22;16051;53.024;8.630;2023-02-25T22:36:39;3.00;99.90
17938;DHT22;16051;53.024;8.630;2023-02-25T22:40:49;3.00;99.90
17938;DHT22;16051;53.024;8.630;2023-02-25T22:44:53;2.90;99.90
17938;DHT22;16051;53.024;8.630;2023-02-25T22:48:55;2.80;99.90
17938;DHT22;16051;53.024;8.630;2023-02-25T22:52:59;2.80;99.90
17938;DHT22;16051;53.024;8.630;2023-02-25T22:57:01;2.80;99.90
17938;DHT22;16051;53.024;8.630;2023-02-25T23:01:05;2.80;99.90
17938;DHT22;16051;53.024;8.630;2023-02-25T23:05:08;2.70;99.90
17938;DHT22;16051;53.024;8.630;2023-02-25T23:09:11;2.60;99.90
17938;DHT22;16051;53.024;8.630;2023-02-25T23:13:13;2.60;99.90
17938;DHT22;16051;53.024;8.630;2023-02-25T23:17:35;2.50;99.90
17938;DHT22;16051;53.024;8.630;2023-02-25T23:21:38;2.50;99.90
17938;DHT22;16051;53.024;8.630;2023-02-25T23:25:41;2.40;99.90
17938;DHT22;16051;53.024;8.630;2023-02-25T23:29:51;2.40;99.90
17938;DHT22;16051;53.024;8.630;2023-02-25T23:33:55;2.30;99.90
17938;DHT22;16051;53.024;8.630;2023-02-25T23:37:58;2.30;99.90
17938;DHT22;16051;53.024;8.630;2023-02-25T23:42:14;2.30;99.90
17938;DHT22;16051;53.024;8.630;2023-02-25T23:46:16;2.30;99.90
17938;DHT22;16051;53.024;8.630;2023-02-25T23:50:46;2.20;99.90
17938;DHT22;16051;53.024;8.630;2023-02-25T23:54:50;2.20;99.90
17938;DHT22;16051;53.024;8.630;2023-02-25T23:58:53;2.20;99.90
